Time;durP1;ratioP1;P1;durP2;ratioP2;P2;SDS_P1;SDS_P2;PMS_P1;PMS_P2;Temp;Humidity;BMP_temperature;BMP_pressure;BME280_temperature;BME280_humidity;BME280_pressure;Samples;Min_cycle;Max_cycle;Signal;HPM_P1;HPM_P2
2023/05/10 00:02:09;;;;;;;0.60;0.60;;;;;;;;;;5032499;28;20218;-92
2023/05/10 00:04:36;;;;;;;0.70;0.70;;;;;;;;;;5032285;28;20227;-92
2023/05/10 00:07:05;;;;;;;0.60;0.60;;;;;;;;;;5031844;28;20210;-91
2023/05/10 00:09:32;;;;;;;0.80;0.80;;;;;;;;;;5032093;28;20246;-91
2023/05/10 00:11:59;;;;;;;0.80;0.80;;;;;;;;;;5032707;28;20210;-92
2023/05/10 00:14:26;;;;;;;0.50;0.50;;;;;;;;;;5033380;28;20233;-90
2023/05/10 00:16:53;;;;;;;0.80;0.80;;;;;;;;;;5036663;28;20211;-92
2023/05/10 00:19:20;;;;;;;0.53;0.53;;;;;;;;;;5034516;28;20227;-91
2023/05/10 00:21:48;;;;;;;0.83;0.83;;;;;;;;;;5036343;28;20716;-89
2023/05/10 00:24:16;;;;;;;0.90;0.90;;;;;;;;;;5035163;28;20195;-90
2023/05/10 00:26:43;;;;;;;0.77;0.77;;;;;;;;;;5036349;28;20214;-91
2023/05/10 00:29:10;;;;;;;1.00;1.00;;;;;;;;;;5035830;28;20223;-92
2023/05/10 00:31:37;;;;;;;0.80;0.80;;;;;;;;;;5035306;28;20203;-90
2023/05/10 00:34:04;;;;;;;0.90;0.90;;;;;;;;;;5034920;28;20218;-91
2023/05/10 00:36:32;;;;;;;1.50;0.90;;;;;;;;;;5034612;28;20234;-90
2023/05/10 00:38:59;;;;;;;1.00;1.00;;;;;;;;;;5035026;28;20284;-90
2023/05/10 00:41:27;;;;;;;1.03;0.90;;;;;;;;;;5035092;28;20242;-91
2023/05/10 00:43:55;;;;;;;1.00;1.00;;;;;;;;;;5035803;28;20310;-91
2023/05/10 00:46:22;;;;;;;1.43;0.90;;;;;;;;;;5034890;28;20242;-92
2023/05/10 00:48:50;;;;;;;0.90;0.90;;;;;;;;;;5036266;28;20231;-93
2023/05/10 00:51:17;;;;;;;0.90;0.90;;;;;;;;;;5035575;28;20238;-93
2023/05/10 00:53:45;;;;;;;0.90;0.90;;;;;;;;;;5035619;28;20310;-93
2023/05/10 00:56:12;;;;;;;1.50;0.83;;;;;;;;;;5033733;28;20754;-93
2023/05/10 00:58:41;;;;;;;0.90;0.90;;;;;;;;;;5036041;28;20593;-90
2023/05/10 01:01:09;;;;;;;3.03;0.97;;;;;;;;;;5034352;28;20258;-91
2023/05/10 01:03:36;;;;;;;1.23;1.13;;;;;;;;;;5035876;28;20210;-90
2023/05/10 01:06:04;;;;;;;2.20;1.00;;;;;;;;;;5035809;28;20234;-94
2023/05/10 01:08:31;;;;;;;0.70;0.70;;;;;;;;;;5037262;28;20230;-94
2023/05/10 01:10:58;;;;;;;0.80;0.80;;;;;;;;;;5036508;28;20234;-93
2023/05/10 01:13:32;;;;;;;1.07;1.07;;;;;;;;;;5034406;28;20720;-90
2023/05/10 01:16:02;;;;;;;1.47;1.30;;;;;;;;;;5036287;28;20739;-93
2023/05/10 01:18:29;;;;;;;4.10;1.23;;;;;;;;;;5036549;28;20281;-92
2023/05/10 01:21:03;;;;;;;1.20;1.20;;;;;;;;;;5027532;28;20234;-91
2023/05/10 01:23:39;;;;;;;1.33;1.33;;;;;;;;;;5016199;28;20191;-93
2023/05/10 01:26:15;;;;;;;1.53;1.43;;;;;;;;;;5015151;28;20242;-92
2023/05/10 01:29:07;;;;;;;1.33;1.33;;;;;;;;;;5016604;28;20776;-92
2023/05/10 01:31:45;;;;;;;1.83;1.73;;;;;;;;;;5016245;28;20212;-94
2023/05/10 01:34:17;;;;;;;2.00;1.90;;;;;;;;;;5020662;28;20237;-92
2023/05/10 01:36:47;;;;;;;1.90;1.80;;;;;;;;;;5018663;28;20213;-93
2023/05/10 01:39:17;;;;;;;1.77;1.67;;;;;;;;;;5020286;28;20226;-93
2023/05/10 01:41:49;;;;;;;2.70;2.10;;;;;;;;;;5034368;28;20191;-93
2023/05/10 01:44:19;;;;;;;2.03;1.93;;;;;;;;;;5021821;28;20218;-93
2023/05/10 01:46:50;;;;;;;2.40;2.00;;;;;;;;;;5035181;28;20203;-92
2023/05/10 01:49:22;;;;;;;1.97;1.87;;;;;;;;;;5033426;28;20847;-93
2023/05/10 01:51:52;;;;;;;2.00;1.90;;;;;;;;;;5022238;28;20203;-93
2023/05/10 01:54:21;;;;;;;2.07;1.87;;;;;;;;;;5033758;28;20219;-94
2023/05/10 01:56:49;;;;;;;1.80;1.70;;;;;;;;;;5030671;28;20199;-92
2023/05/10 01:59:18;;;;;;;1.70;1.60;;;;;;;;;;5033962;28;20229;-92
2023/05/10 02:01:46;;;;;;;1.83;1.73;;;;;;;;;;5016615;28;20214;-93
2023/05/10 02:04:14;;;;;;;1.53;1.47;;;;;;;;;;5013918;28;20207;-93
2023/05/10 02:06:43;;;;;;;1.63;1.50;;;;;;;;;;5024587;28;20202;-92
2023/05/10 02:09:10;;;;;;;1.50;1.50;;;;;;;;;;5033325;28;20225;-92
2023/05/10 02:11:39;;;;;;;1.63;1.53;;;;;;;;;;5015100;28;20218;-91
2023/05/10 02:14:07;;;;;;;1.87;1.77;;;;;;;;;;5015265;28;20230;-91
2023/05/10 02:16:35;;;;;;;1.70;1.60;;;;;;;;;;5034773;28;20211;-91
2023/05/10 02:19:03;;;;;;;1.70;1.60;;;;;;;;;;5033531;28;20234;-92
2023/05/10 02:21:30;;;;;;;1.40;1.40;;;;;;;;;;5026958;28;20924;-92
2023/05/10 02:23:59;;;;;;;1.53;1.50;;;;;;;;;;5015066;28;20212;-93
2023/05/10 02:26:27;;;;;;;1.60;1.50;;;;;;;;;;5013468;28;20242;-92
2023/05/10 02:28:55;;;;;;;1.40;1.40;;;;;;;;;;5014652;28;20230;-91
2023/05/10 02:31:23;;;;;;;2.43;1.50;;;;;;;;;;5024008;28;20288;-92
2023/05/10 02:33:50;;;;;;;1.60;1.50;;;;;;;;;;5024783;28;20322;-91
2023/05/10 02:36:18;;;;;;;1.37;1.37;;;;;;;;;;5015228;28;20242;-92
2023/05/10 02:38:46;;;;;;;3.03;1.40;;;;;;;;;;5033644;28;20340;-92
2023/05/10 02:41:14;;;;;;;1.40;1.40;;;;;;;;;;5034210;28;20246;-92
2023/05/10 02:43:42;;;;;;;1.33;1.20;;;;;;;;;;5025857;28;20199;-91
2023/05/10 02:46:09;;;;;;;1.30;1.20;;;;;;;;;;5012843;28;20239;-92
2023/05/10 02:48:36;;;;;;;1.20;1.20;;;;;;;;;;5013215;28;20710;-92
2023/05/10 02:51:06;;;;;;;1.20;1.20;;;;;;;;;;5014579;28;20713;-92
2023/05/10 02:53:35;;;;;;;1.40;1.30;;;;;;;;;;5025548;28;20187;-92
2023/05/10 02:56:03;;;;;;;1.40;1.30;;;;;;;;;;5028374;28;20231;-91
2023/05/10 02:58:32;;;;;;;1.40;1.30;;;;;;;;;;5014320;28;20246;-92
2023/05/10 03:00:59;;;;;;;1.90;1.40;;;;;;;;;;5021999;28;20222;-92
2023/05/10 03:03:26;;;;;;;1.40;1.40;;;;;;;;;;5032178;28;20206;-91
2023/05/10 03:05:55;;;;;;;3.43;1.50;;;;;;;;;;5032320;28;20241;-92
2023/05/10 03:08:23;;;;;;;1.60;1.50;;;;;;;;;;5033060;28;20211;-91
2023/05/10 03:10:55;;;;;;;1.50;1.40;;;;;;;;;;5031818;28;20288;-92
2023/05/10 03:13:29;;;;;;;1.43;1.40;;;;;;;;;;5032575;28;20194;-92
2023/05/10 03:16:00;;;;;;;1.50;1.40;;;;;;;;;;5032131;28;20266;-91
2023/05/10 03:18:30;;;;;;;1.23;1.23;;;;;;;;;;5032156;28;20195;-91
2023/05/10 03:20:59;;;;;;;1.50;1.40;;;;;;;;;;5031618;28;20242;-91
2023/05/10 03:23:28;;;;;;;1.50;1.43;;;;;;;;;;5031915;28;20202;-90
2023/05/10 03:25:56;;;;;;;1.70;1.60;;;;;;;;;;5031357;28;20249;-93
2023/05/10 03:28:23;;;;;;;1.53;1.43;;;;;;;;;;5032233;28;20210;-92
2023/05/10 03:30:51;;;;;;;1.43;1.33;;;;;;;;;;5031356;28;20234;-91
2023/05/10 03:33:19;;;;;;;1.47;1.40;;;;;;;;;;5032251;28;20277;-92
2023/05/10 03:35:47;;;;;;;1.93;1.50;;;;;;;;;;5030817;28;20234;-89
2023/05/10 03:38:14;;;;;;;2.83;1.70;;;;;;;;;;5031224;28;20573;-89
2023/05/10 03:40:41;;;;;;;2.00;1.77;;;;;;;;;;5030392;28;20231;-88
2023/05/10 03:43:08;;;;;;;1.90;1.80;;;;;;;;;;5031174;28;20205;-88
2023/05/10 03:45:35;;;;;;;2.03;1.90;;;;;;;;;;5031244;28;20234;-88
2023/05/10 03:48:02;;;;;;;1.80;1.70;;;;;;;;;;5030759;28;20824;-89
2023/05/10 03:50:30;;;;;;;1.70;1.60;;;;;;;;;;5034170;28;20240;-92
2023/05/10 03:52:58;;;;;;;1.83;1.50;;;;;;;;;;5036940;28;20202;-92
2023/05/10 03:55:25;;;;;;;1.70;1.60;;;;;;;;;;5037008;28;20234;-93
2023/05/10 03:57:53;;;;;;;1.70;1.60;;;;;;;;;;5038132;28;20203;-94
2023/05/10 04:00:21;;;;;;;2.07;1.97;;;;;;;;;;5038525;28;20238;-94
2023/05/10 04:02:48;;;;;;;1.80;1.70;;;;;;;;;;5038814;28;20199;-93
2023/05/10 04:05:15;;;;;;;2.03;1.93;;;;;;;;;;5038257;28;20248;-94
2023/05/10 04:07:46;;;;;;;2.63;1.97;;;;;;;;;;5034533;28;20207;-93
2023/05/10 04:10:14;;;;;;;2.20;2.10;;;;;;;;;;5019474;28;20266;-95
2023/05/10 04:12:41;;;;;;;1.63;1.53;;;;;;;;;;5019343;28;20237;-94
2023/05/10 04:15:09;;;;;;;1.80;1.70;;;;;;;;;;5019346;28;20737;-96
2023/05/10 04:17:36;;;;;;;1.97;1.70;;;;;;;;;;5019632;28;20212;-95
2023/05/10 04:20:03;;;;;;;2.03;1.93;;;;;;;;;;5018732;28;20246;-96
2023/05/10 04:22:30;;;;;;;3.93;2.20;;;;;;;;;;5019865;28;20199;-94
2023/05/10 04:25:15;;;;;;;2.20;2.00;;;;;;;;;;5019065;28;20278;-95
2023/05/10 04:27:42;;;;;;;2.23;2.03;;;;;;;;;;5019361;28;20614;-95
2023/05/10 04:30:10;;;;;;;2.87;2.10;;;;;;;;;;5018340;28;20243;-95
2023/05/10 04:32:37;;;;;;;2.93;2.13;;;;;;;;;;5019322;28;20247;-95
2023/05/10 04:35:04;;;;;;;2.10;1.90;;;;;;;;;;5018757;28;20222;-95
2023/05/10 04:37:32;;;;;;;2.13;2.03;;;;;;;;;;5019600;28;20253;-94
2023/05/10 04:39:59;;;;;;;2.57;2.37;;;;;;;;;;5018057;28;20712;-94
2023/05/10 04:42:28;;;;;;;2.63;2.43;;;;;;;;;;5018928;28;20207;-94
2023/05/10 04:44:55;;;;;;;2.97;2.70;;;;;;;;;;5018935;28;20234;-95
2023/05/10 04:47:22;;;;;;;2.93;2.20;;;;;;;;;;5020464;28;20216;-95
2023/05/10 04:49:49;;;;;;;2.50;2.30;;;;;;;;;;5019761;28;20227;-94
2023/05/10 04:52:17;;;;;;;2.60;2.40;;;;;;;;;;5018035;28;20231;-91
2023/05/10 04:54:44;;;;;;;2.50;2.40;;;;;;;;;;5016149;28;20314;-92
2023/05/10 04:57:12;;;;;;;3.50;2.43;;;;;;;;;;5018934;28;20211;-95
2023/05/10 04:59:42;;;;;;;2.17;2.03;;;;;;;;;;5017758;28;20238;-95
2023/05/10 05:02:25;;;;;;;2.77;2.20;;;;;;;;;;5017638;28;20207;-94
2023/05/10 05:05:03;;;;;;;2.30;2.20;;;;;;;;;;5017507;28;20223;-95
2023/05/10 05:07:36;;;;;;;2.60;2.40;;;;;;;;;;5018273;28;20195;-95
2023/05/10 05:10:03;;;;;;;3.27;2.27;;;;;;;;;;5017602;28;20242;-92
2023/05/10 05:12:30;;;;;;;2.13;1.93;;;;;;;;;;5017786;28;20184;-93
2023/05/10 05:14:59;;;;;;;2.20;2.10;;;;;;;;;;5017248;28;20239;-91
2023/05/10 05:17:26;;;;;;;2.50;2.30;;;;;;;;;;5018235;28;20195;-92
2023/05/10 05:19:53;;;;;;;2.30;2.10;;;;;;;;;;5023188;28;20230;-95
2023/05/10 05:22:27;;;;;;;2.60;2.40;;;;;;;;;;5037302;28;20199;-94
2023/05/10 05:24:54;;;;;;;2.70;2.43;;;;;;;;;;5036978;28;20234;-94
2023/05/10 05:27:23;;;;;;;2.90;2.60;;;;;;;;;;5034324;28;20268;-95
2023/05/10 05:29:51;;;;;;;3.20;2.67;;;;;;;;;;5017047;28;20243;-91
2023/05/10 05:32:19;;;;;;;2.60;2.40;;;;;;;;;;5029534;28;20286;-90
2023/05/10 05:34:46;;;;;;;2.90;2.60;;;;;;;;;;5033437;28;20249;-90
2023/05/10 05:37:14;;;;;;;3.27;2.10;;;;;;;;;;5015234;28;20207;-91
2023/05/10 05:39:42;;;;;;;2.60;2.40;;;;;;;;;;5013227;28;20698;-90
2023/05/10 05:42:09;;;;;;;3.10;2.60;;;;;;;;;;5026130;28;20245;-90
2023/05/10 05:44:36;;;;;;;2.73;2.50;;;;;;;;;;5014944;28;20242;-90
2023/05/10 05:47:03;;;;;;;4.30;2.57;;;;;;;;;;5013081;28;20210;-89
2023/05/10 05:49:32;;;;;;;3.63;2.57;;;;;;;;;;5030009;28;20342;-88
2023/05/10 05:52:01;;;;;;;2.80;2.60;;;;;;;;;;5028188;28;20199;-92
2023/05/10 05:54:28;;;;;;;3.47;2.67;;;;;;;;;;5013270;28;20597;-92
2023/05/10 05:56:56;;;;;;;2.43;2.33;;;;;;;;;;5017601;28;20576;-91
2023/05/10 05:59:23;;;;;;;4.20;2.73;;;;;;;;;;5029388;28;20234;-93
2023/05/10 06:01:50;;;;;;;2.70;2.50;;;;;;;;;;5016199;28;20199;-92
2023/05/10 06:04:17;;;;;;;4.83;2.73;;;;;;;;;;5019897;28;20210;-90
2023/05/10 06:06:46;;;;;;;4.47;2.80;;;;;;;;;;5034099;28;20222;-91
2023/05/10 06:09:13;;;;;;;3.73;2.70;;;;;;;;;;5025648;28;20222;-90
2023/05/10 06:11:40;;;;;;;3.37;2.40;;;;;;;;;;5032636;28;20218;-89
2023/05/10 06:14:07;;;;;;;5.73;2.80;;;;;;;;;;5032525;28;20206;-90
2023/05/10 06:16:35;;;;;;;4.87;2.40;;;;;;;;;;5032541;28;20727;-89
2023/05/10 06:19:02;;;;;;;2.67;2.10;;;;;;;;;;5028897;28;20218;-90
2023/05/10 06:21:29;;;;;;;3.70;1.87;;;;;;;;;;5014581;28;20736;-90
2023/05/10 06:23:58;;;;;;;2.87;2.00;;;;;;;;;;5021242;28;20215;-90
2023/05/10 06:26:25;;;;;;;3.60;2.57;;;;;;;;;;5029304;28;20238;-90
2023/05/10 06:28:52;;;;;;;7.27;2.30;;;;;;;;;;5027053;28;20234;-91
2023/05/10 06:31:19;;;;;;;4.47;2.60;;;;;;;;;;5028126;28;20249;-89
2023/05/10 06:33:46;;;;;;;4.30;2.53;;;;;;;;;;5017375;28;20207;-90
2023/05/10 06:36:14;;;;;;;3.93;2.37;;;;;;;;;;5025869;28;20258;-90
2023/05/10 06:38:41;;;;;;;2.40;2.20;;;;;;;;;;5017922;28;20246;-91
2023/05/10 06:41:10;;;;;;;2.53;2.33;;;;;;;;;;5026090;28;20241;-90
2023/05/10 06:43:39;;;;;;;4.53;2.50;;;;;;;;;;5031908;28;20210;-89
2023/05/10 06:46:07;;;;;;;2.57;2.37;;;;;;;;;;5031240;28;20235;-89
2023/05/10 06:48:34;;;;;;;2.97;2.07;;;;;;;;;;5028556;28;20256;-88
2023/05/10 06:51:01;;;;;;;4.17;2.47;;;;;;;;;;5023739;28;20242;-89
2023/05/10 06:53:28;;;;;;;3.73;2.50;;;;;;;;;;5020413;28;20231;-89
2023/05/10 06:55:55;;;;;;;5.03;3.03;;;;;;;;;;5022785;28;20231;-89
2023/05/10 06:58:24;;;;;;;3.10;2.30;;;;;;;;;;5018164;28;20212;-89
2023/05/10 07:00:51;;;;;;;2.33;2.17;;;;;;;;;;5019274;28;20226;-89
2023/05/10 07:03:18;;;;;;;2.73;2.10;;;;;;;;;;5022280;28;20211;-89
2023/05/10 07:05:45;;;;;;;2.63;2.40;;;;;;;;;;5022206;28;20223;-89
2023/05/10 07:08:13;;;;;;;3.53;2.70;;;;;;;;;;5025239;28;20211;-89
2023/05/10 07:10:40;;;;;;;3.80;3.00;;;;;;;;;;5013550;28;20246;-88
2023/05/10 07:13:07;;;;;;;3.03;2.73;;;;;;;;;;5031871;28;20214;-88
2023/05/10 07:15:36;;;;;;;3.37;2.80;;;;;;;;;;5030731;28;20245;-88
2023/05/10 07:18:04;;;;;;;3.17;2.87;;;;;;;;;;5031223;28;20680;-92
2023/05/10 07:20:31;;;;;;;3.33;2.60;;;;;;;;;;5028569;28;20775;-92
2023/05/10 07:22:58;;;;;;;4.03;3.17;;;;;;;;;;5025823;28;20207;-94
2023/05/10 07:25:25;;;;;;;3.57;3.03;;;;;;;;;;5016520;28;20242;-92
2023/05/10 07:28:02;;;;;;;3.47;3.17;;;;;;;;;;5018704;28;20207;-93
2023/05/10 07:30:37;;;;;;;6.13;2.97;;;;;;;;;;5033824;28;20248;-93
2023/05/10 07:33:04;;;;;;;3.00;2.80;;;;;;;;;;5020761;28;20210;-94
2023/05/10 07:35:32;;;;;;;3.97;3.20;;;;;;;;;;5033832;28;20234;-94
2023/05/10 07:37:59;;;;;;;4.20;2.87;;;;;;;;;;5034584;28;20213;-93
2023/05/10 07:40:26;;;;;;;3.13;2.90;;;;;;;;;;5018324;28;20243;-94
2023/05/10 07:42:56;;;;;;;5.07;3.00;;;;;;;;;;5026101;28;20213;-93
2023/05/10 07:45:24;;;;;;;6.53;3.13;;;;;;;;;;5026018;28;20237;-93
2023/05/10 07:47:52;;;;;;;6.07;3.60;;;;;;;;;;5025979;28;20211;-95
2023/05/10 07:50:27;;;;;;;3.47;2.57;;;;;;;;;;5033626;28;20234;-93
2023/05/10 07:52:54;;;;;;;2.87;2.67;;;;;;;;;;5025410;28;20210;-91
2023/05/10 07:55:21;;;;;;;2.67;2.47;;;;;;;;;;5017935;28;20238;-93
2023/05/10 07:57:51;;;;;;;2.57;2.37;;;;;;;;;;5022213;28;20234;-91
2023/05/10 08:00:26;;;;;;;2.70;2.50;;;;;;;;;;5022703;28;20296;-94
2023/05/10 08:02:55;;;;;;;3.10;2.50;;;;;;;;;;5033860;28;20195;-93
2023/05/10 08:05:23;;;;;;;4.17;3.07;;;;;;;;;;5033626;28;20237;-91
2023/05/10 08:07:50;;;;;;;4.60;2.50;;;;;;;;;;5024251;28;20207;-89
2023/05/10 08:10:17;;;;;;;3.37;2.43;;;;;;;;;;5024550;28;20240;-91
2023/05/10 08:12:44;;;;;;;3.90;2.60;;;;;;;;;;5030176;28;20229;-94
2023/05/10 08:15:12;;;;;;;3.00;2.67;;;;;;;;;;5027426;28;20234;-90
2023/05/10 08:17:39;;;;;;;2.53;2.33;;;;;;;;;;5031860;28;20215;-89
2023/05/10 08:20:08;;;;;;;4.30;2.53;;;;;;;;;;5025638;28;20235;-90
2023/05/10 08:22:35;;;;;;;4.17;2.27;;;;;;;;;;5024101;28;20211;-91
2023/05/10 08:25:02;;;;;;;2.00;1.90;;;;;;;;;;5023075;28;20227;-92
2023/05/10 08:27:29;;;;;;;2.87;1.90;;;;;;;;;;5023735;28;20203;-93
2023/05/10 08:29:56;;;;;;;2.83;2.00;;;;;;;;;;5022660;28;20238;-93
2023/05/10 08:32:25;;;;;;;2.30;2.10;;;;;;;;;;5020161;28;20214;-93
2023/05/10 08:34:53;;;;;;;2.63;2.23;;;;;;;;;;5021031;28;20223;-92
2023/05/10 08:37:21;;;;;;;2.63;2.30;;;;;;;;;;5030615;28;20700;-90
2023/05/10 08:39:48;;;;;;;2.07;1.90;;;;;;;;;;5032718;28;20239;-90
2023/05/10 08:42:17;;;;;;;2.00;1.90;;;;;;;;;;5026087;28;20609;-89
2023/05/10 08:44:44;;;;;;;1.93;1.70;;;;;;;;;;5015911;28;20231;-88
2023/05/10 08:47:11;;;;;;;2.33;1.50;;;;;;;;;;5024826;28;20214;-87
2023/05/10 08:49:39;;;;;;;1.80;1.70;;;;;;;;;;5031788;28;20234;-88
2023/05/10 08:52:07;;;;;;;2.10;1.90;;;;;;;;;;5031463;28;20552;-87
2023/05/10 08:54:35;;;;;;;1.80;1.70;;;;;;;;;;5019468;28;20231;-87
2023/05/10 08:57:02;;;;;;;1.80;1.63;;;;;;;;;;5029353;28;20235;-87
2023/05/10 08:59:30;;;;;;;3.30;1.97;;;;;;;;;;5026182;28;20594;-87
2023/05/10 09:01:59;;;;;;;2.20;1.57;;;;;;;;;;5027066;28;20613;-90
2023/05/10 09:04:26;;;;;;;2.37;2.13;;;;;;;;;;5038910;28;20304;-91
2023/05/10 09:06:53;;;;;;;2.27;1.90;;;;;;;;;;5037137;28;20203;-91
2023/05/10 09:09:22;;;;;;;2.60;2.33;;;;;;;;;;5037859;28;20231;-93
2023/05/10 09:11:50;;;;;;;2.20;2.00;;;;;;;;;;5039211;28;20218;-93
2023/05/10 09:14:18;;;;;;;2.30;2.10;;;;;;;;;;5038205;28;20206;-93
2023/05/10 09:16:46;;;;;;;2.73;2.37;;;;;;;;;;5038698;28;20237;-92
2023/05/10 09:19:13;;;;;;;2.17;2.00;;;;;;;;;;5036187;28;20249;-93
2023/05/10 09:21:40;;;;;;;2.53;2.17;;;;;;;;;;5036713;28;20206;-92
2023/05/10 09:24:08;;;;;;;2.47;2.27;;;;;;;;;;5034426;28;20232;-92
2023/05/10 09:26:36;;;;;;;2.60;2.40;;;;;;;;;;5035140;28;20206;-92
2023/05/10 09:29:06;;;;;;;2.73;2.40;;;;;;;;;;5022740;28;20572;-91
2023/05/10 09:31:46;;;;;;;2.40;2.20;;;;;;;;;;5035813;28;20227;-91
2023/05/10 09:34:17;;;;;;;2.63;2.43;;;;;;;;;;5039889;28;20210;-95
2023/05/10 09:36:54;;;;;;;3.33;2.40;;;;;;;;;;5043185;28;20257;-92
2023/05/10 09:39:22;;;;;;;2.33;2.13;;;;;;;;;;5039764;28;20320;-96
2023/05/10 09:41:49;;;;;;;2.60;2.40;;;;;;;;;;5039322;28;20206;-92
2023/05/10 09:44:20;;;;;;;2.30;2.10;;;;;;;;;;5024692;28;20718;-94
2023/05/10 09:46:50;;;;;;;2.53;2.20;;;;;;;;;;5039870;28;20578;-93
2023/05/10 09:49:18;;;;;;;3.90;2.00;;;;;;;;;;5031720;28;20652;-95
2023/05/10 09:51:45;;;;;;;2.60;1.87;;;;;;;;;;5042995;28;20211;-95
2023/05/10 09:54:13;;;;;;;1.90;1.80;;;;;;;;;;5039038;28;20214;-95
2023/05/10 09:56:41;;;;;;;2.20;2.00;;;;;;;;;;5027528;28;20231;-94
2023/05/10 09:59:09;;;;;;;1.87;1.77;;;;;;;;;;5017996;28;20721;-89
2023/05/10 10:01:40;;;;;;;1.93;1.80;;;;;;;;;;5033008;28;20210;-94
2023/05/10 10:04:09;;;;;;;1.33;1.33;;;;;;;;;;5034773;28;20202;-93
2023/05/10 10:06:39;;;;;;;1.40;1.40;;;;;;;;;;5022755;28;20207;-93
2023/05/10 10:09:07;;;;;;;1.70;1.20;;;;;;;;;;5016376;28;20226;-94
2023/05/10 10:11:35;;;;;;;4.73;1.50;;;;;;;;;;5032724;28;20269;-90
2023/05/10 10:14:02;;;;;;;1.47;1.37;;;;;;;;;;5033982;28;20203;-92
2023/05/10 10:16:30;;;;;;;4.20;1.83;;;;;;;;;;5015041;28;20242;-89
2023/05/10 10:18:59;;;;;;;5.50;1.80;;;;;;;;;;5032312;28;20721;-90
2023/05/10 10:21:26;;;;;;;1.73;1.53;;;;;;;;;;5024961;28;20256;-90
2023/05/10 10:23:53;;;;;;;1.60;1.50;;;;;;;;;;5023374;28;20210;-90
2023/05/10 10:26:20;;;;;;;4.90;1.37;;;;;;;;;;5025881;28;20313;-91
2023/05/10 10:28:51;;;;;;;1.47;1.37;;;;;;;;;;5030017;28;20226;-91
2023/05/10 10:31:20;;;;;;;2.13;1.60;;;;;;;;;;5034156;28;20238;-91
2023/05/10 10:34:01;;;;;;;1.50;1.40;;;;;;;;;;5024421;28;20202;-91
2023/05/10 10:36:28;;;;;;;2.17;1.50;;;;;;;;;;5021889;28;20230;-91
2023/05/10 10:39:03;;;;;;;6.30;1.63;;;;;;;;;;5016010;28;20235;-91
2023/05/10 10:41:34;;;;;;;2.10;1.40;;;;;;;;;;5030920;28;20226;-91
2023/05/10 10:44:20;;;;;;;2.27;1.53;;;;;;;;;;5026979;28;20297;-90
2023/05/10 10:47:18;;;;;;;2.93;1.60;;;;;;;;;;5026947;28;20222;-90
2023/05/10 10:49:51;;;;;;;2.27;1.77;;;;;;;;;;4987100;28;20236;-90
2023/05/10 10:52:28;;;;;;;1.60;1.50;;;;;;;;;;5029143;28;20285;-92
2023/05/10 10:54:59;;;;;;;1.70;1.60;;;;;;;;;;5026960;28;20225;-92
2023/05/10 10:57:27;;;;;;;2.40;1.60;;;;;;;;;;5024748;28;20272;-90
2023/05/10 11:00:15;;;;;;;4.30;2.03;;;;;;;;;;5031786;28;20253;-90
2023/05/10 11:02:48;;;;;;;1.90;1.60;;;;;;;;;;5039772;28;20206;-91
2023/05/10 11:05:26;;;;;;;2.60;1.87;;;;;;;;;;5030656;28;20342;-91
2023/05/10 11:07:54;;;;;;;1.87;1.77;;;;;;;;;;5027402;28;20289;-89
2023/05/10 11:10:21;;;;;;;4.50;2.27;;;;;;;;;;5023383;28;20235;-89
2023/05/10 11:12:55;;;;;;;2.50;2.00;;;;;;;;;;5030624;28;20203;-90
2023/05/10 11:15:30;;;;;;;1.93;1.80;;;;;;;;;;5031402;28;20728;-89
2023/05/10 11:17:57;;;;;;;2.33;2.13;;;;;;;;;;5031238;28;20226;-89
2023/05/10 11:20:33;;;;;;;2.40;1.60;;;;;;;;;;5025805;28;20243;-89
2023/05/10 11:23:12;;;;;;;1.87;1.77;;;;;;;;;;5031916;28;20260;-90
2023/05/10 11:25:42;;;;;;;2.00;1.80;;;;;;;;;;5022122;28;20242;-88
2023/05/10 11:28:10;;;;;;;2.40;1.50;;;;;;;;;;5025371;28;20592;-89
2023/05/10 11:30:38;;;;;;;2.00;1.43;;;;;;;;;;5026110;28;20237;-91
2023/05/10 11:33:06;;;;;;;4.07;1.30;;;;;;;;;;5020010;28;20200;-90
2023/05/10 11:35:38;;;;;;;3.43;1.60;;;;;;;;;;5019845;28;20238;-89
2023/05/10 11:38:07;;;;;;;1.50;1.27;;;;;;;;;;5016232;28;20210;-90
2023/05/10 11:40:35;;;;;;;1.30;1.20;;;;;;;;;;5015556;28;20236;-90
2023/05/10 11:43:02;;;;;;;2.93;1.47;;;;;;;;;;5033095;28;20227;-89
2023/05/10 11:45:31;;;;;;;1.40;1.30;;;;;;;;;;5032822;28;20265;-90
2023/05/10 11:47:58;;;;;;;3.13;1.30;;;;;;;;;;5024552;28;20207;-91
2023/05/10 11:50:26;;;;;;;1.40;1.30;;;;;;;;;;5022812;28;20487;-90
2023/05/10 11:52:55;;;;;;;1.77;1.63;;;;;;;;;;5031471;28;20614;-91
2023/05/10 11:55:23;;;;;;;1.60;1.50;;;;;;;;;;5021482;28;20238;-90
2023/05/10 11:57:53;;;;;;;4.97;1.30;;;;;;;;;;5033636;28;20241;-92
2023/05/10 12:00:20;;;;;;;5.07;1.50;;;;;;;;;;5031375;28;20230;-90
2023/05/10 12:02:47;;;;;;;1.53;1.40;;;;;;;;;;5031406;28;20203;-92
2023/05/10 12:05:15;;;;;;;1.97;1.40;;;;;;;;;;5033370;28;20234;-88
2023/05/10 12:07:42;;;;;;;3.33;1.40;;;;;;;;;;5024455;28;20684;-89
2023/05/10 12:10:14;;;;;;;1.90;1.27;;;;;;;;;;5029367;28;20246;-88
2023/05/10 12:12:42;;;;;;;2.43;1.50;;;;;;;;;;5025035;28;20226;-87
2023/05/10 12:15:13;;;;;;;1.27;1.27;;;;;;;;;;5023067;28;20268;-88
2023/05/10 12:17:41;;;;;;;1.50;1.40;;;;;;;;;;5022875;28;20764;-88
2023/05/10 12:20:20;;;;;;;1.20;1.20;;;;;;;;;;5019017;28;20231;-88
2023/05/10 12:22:51;;;;;;;1.10;1.00;;;;;;;;;;5032139;28;20202;-87
2023/05/10 12:25:20;;;;;;;1.20;1.10;;;;;;;;;;5014510;28;20239;-88
2023/05/10 12:27:52;;;;;;;2.07;1.20;;;;;;;;;;5023201;28;20282;-88
2023/05/10 12:30:22;;;;;;;2.30;1.10;;;;;;;;;;5030314;28;20275;-87
2023/05/10 12:32:49;;;;;;;2.60;0.98;;;;;;;;;;5034113;28;20628;-88
2023/05/10 12:35:16;;;;;;;3.97;1.20;;;;;;;;;;5032379;28;20238;-87
2023/05/10 12:37:44;;;;;;;1.00;1.00;;;;;;;;;;5014876;28;20577;-86
2023/05/10 12:40:12;;;;;;;2.03;0.95;;;;;;;;;;5021285;28;20239;-87
2023/05/10 12:42:40;;;;;;;1.23;1.13;;;;;;;;;;5018640;28;20210;-89
2023/05/10 12:45:09;;;;;;;1.50;1.30;;;;;;;;;;5026309;28;20703;-89
2023/05/10 12:47:36;;;;;;;1.33;1.23;;;;;;;;;;5016647;28;20207;-88
2023/05/10 12:50:03;;;;;;;1.30;1.20;;;;;;;;;;5025461;28;20235;-89
2023/05/10 12:52:31;;;;;;;1.58;1.48;;;;;;;;;;5028595;28;20207;-93
2023/05/10 12:54:59;;;;;;;1.35;1.25;;;;;;;;;;5035090;28;20250;-89
2023/05/10 12:57:26;;;;;;;2.92;1.55;;;;;;;;;;5027521;28;20215;-83
2023/05/10 12:59:54;;;;;;;1.20;1.10;;;;;;;;;;5013443;28;20238;-85
2023/05/10 13:02:22;;;;;;;3.13;1.00;;;;;;;;;;5018822;28;20203;-88
2023/05/10 13:04:49;;;;;;;0.80;0.80;;;;;;;;;;5024298;28;20693;-87
2023/05/10 13:07:16;;;;;;;2.60;1.05;;;;;;;;;;5029872;28;20210;-87
2023/05/10 13:09:43;;;;;;;1.02;0.80;;;;;;;;;;5033776;28;20246;-86
2023/05/10 13:12:11;;;;;;;2.80;1.00;;;;;;;;;;5028802;28;20207;-87
2023/05/10 13:14:40;;;;;;;1.33;1.15;;;;;;;;;;5020559;28;20697;-86
2023/05/10 13:17:08;;;;;;;1.25;1.10;;;;;;;;;;5032558;28;20202;-87
2023/05/10 13:19:35;;;;;;;1.52;1.40;;;;;;;;;;5031954;28;20757;-86
2023/05/10 13:22:02;;;;;;;0.80;0.80;;;;;;;;;;5021460;28;20257;-85
2023/05/10 13:24:29;;;;;;;1.42;1.00;;;;;;;;;;5012022;28;20254;-86
2023/05/10 13:26:57;;;;;;;1.20;1.10;;;;;;;;;;5028234;28;20673;-86
2023/05/10 13:29:24;;;;;;;1.52;0.77;;;;;;;;;;5032322;28;20230;-86
2023/05/10 13:31:51;;;;;;;3.15;1.42;;;;;;;;;;5015867;28;20589;-88
2023/05/10 13:34:20;;;;;;;2.10;0.98;;;;;;;;;;5018118;28;20214;-88
2023/05/10 13:36:48;;;;;;;1.05;0.95;;;;;;;;;;5019546;28;20208;-86
2023/05/10 13:39:15;;;;;;;1.85;1.05;;;;;;;;;;5017784;28;20238;-89
2023/05/10 13:41:43;;;;;;;1.20;1.10;;;;;;;;;;5030279;28;20235;-90
2023/05/10 13:44:10;;;;;;;2.13;0.98;;;;;;;;;;5029240;28;20610;-89
2023/05/10 13:46:38;;;;;;;1.05;0.90;;;;;;;;;;5013302;28;20207;-89
2023/05/10 13:49:05;;;;;;;4.05;1.90;;;;;;;;;;5013680;28;20219;-89
2023/05/10 13:51:34;;;;;;;2.47;1.30;;;;;;;;;;5013422;28;20207;-89
2023/05/10 13:54:01;;;;;;;2.45;1.30;;;;;;;;;;5030162;28;20218;-89
2023/05/10 13:56:28;;;;;;;1.77;1.30;;;;;;;;;;5013881;28;20235;-88
2023/05/10 13:58:56;;;;;;;1.20;1.10;;;;;;;;;;5014581;28;20772;-89
2023/05/10 14:01:24;;;;;;;3.63;1.70;;;;;;;;;;5024936;28;20609;-88
2023/05/10 14:03:51;;;;;;;2.25;1.20;;;;;;;;;;5016685;28;20238;-89
2023/05/10 14:06:18;;;;;;;0.93;0.82;;;;;;;;;;5028498;28;20319;-89
2023/05/10 14:08:46;;;;;;;1.00;0.77;;;;;;;;;;5020317;28;20840;-89
2023/05/10 14:11:13;;;;;;;0.80;0.80;;;;;;;;;;5034328;28;20246;-89
2023/05/10 14:13:40;;;;;;;2.38;1.30;;;;;;;;;;5028097;28;20211;-90
2023/05/10 14:16:08;;;;;;;1.95;1.10;;;;;;;;;;5016671;28;20323;-89
2023/05/10 14:18:35;;;;;;;4.20;1.27;;;;;;;;;;5022437;28;20235;-88
2023/05/10 14:21:03;;;;;;;1.60;1.08;;;;;;;;;;5036452;28;20231;-89
2023/05/10 14:23:30;;;;;;;1.30;0.98;;;;;;;;;;5036385;28;20207;-90
2023/05/10 14:25:59;;;;;;;1.65;0.82;;;;;;;;;;5032577;28;20241;-90
2023/05/10 14:28:26;;;;;;;2.05;0.75;;;;;;;;;;5024816;28;20203;-89
2023/05/10 14:30:53;;;;;;;3.15;1.05;;;;;;;;;;5015589;28;20242;-90
2023/05/10 14:33:20;;;;;;;3.85;0.98;;;;;;;;;;5019139;28;20211;-87
2023/05/10 14:35:47;;;;;;;2.20;0.93;;;;;;;;;;5020415;28;20234;-88
2023/05/10 14:38:15;;;;;;;2.13;0.85;;;;;;;;;;5023757;28;20566;-87
2023/05/10 14:40:42;;;;;;;1.10;1.00;;;;;;;;;;5015393;28;20234;-88
2023/05/10 14:43:10;;;;;;;2.45;1.10;;;;;;;;;;5018211;28;20227;-87
2023/05/10 14:45:38;;;;;;;2.78;1.38;;;;;;;;;;5027830;28;20235;-90
2023/05/10 14:48:05;;;;;;;1.67;1.10;;;;;;;;;;5015557;28;20211;-89
2023/05/10 14:50:32;;;;;;;1.13;1.02;;;;;;;;;;5019406;28;20254;-87
2023/05/10 14:52:59;;;;;;;1.90;1.30;;;;;;;;;;5024843;28;20591;-88